Time;durP1;ratioP1;P1;durP2;ratioP2;P2;SDS_P1;SDS_P2;PMS_P1;PMS_P2;Temp;Humidity;BMP_temperature;BMP_pressure;BME280_temperature;BME280_humidity;BME280_pressure;Samples;Min_cycle;Max_cycle;Signal;HPM_P1;HPM_P2
2023/05/09 00:07:03;;;;;;;;;;;;;;;16.42;68.11;101969.28;20695255;28;19933;-55
2023/05/09 00:17:25;;;;;;;;;;;;;;;16.36;68.40;101961.66;20711691;28;19980;-56
2023/05/09 00:27:47;;;;;;;;;;;;;;;16.23;68.47;101947.31;20717024;28;20451;-56
2023/05/09 00:38:08;;;;;;;;;;;;;;;16.01;67.62;101928.94;20715028;28;20436;-55
2023/05/09 00:48:29;;;;;;;;;;;;;;;15.94;69.09;101918.75;20706928;28;19933;-57
2023/05/09 00:58:51;;;;;;;;;;;;;;;15.81;68.85;101900.06;20697621;28;19929;-56
2023/05/09 01:09:21;;;;;;;;;;;;;;;15.71;68.99;101901.28;20694355;28;19936;-57
2023/05/09 01:19:46;;;;;;;;;;;;;;;15.68;69.80;101880.50;20694653;28;19930;-57
2023/05/09 01:30:09;;;;;;;;;;;;;;;15.58;69.42;101879.13;20708117;28;19930;-55
2023/05/09 01:40:32;;;;;;;;;;;;;;;15.47;69.17;101870.81;20692933;28;21231;-56
2023/05/09 01:50:54;;;;;;;;;;;;;;;15.35;69.16;101850.31;20700899;28;19925;-56
2023/05/09 02:01:16;;;;;;;;;;;;;;;15.22;69.46;101842.94;20710063;28;19930;-57
2023/05/09 02:11:38;;;;;;;;;;;;;;;15.13;69.48;101841.47;20710367;28;20029;-56
2023/05/09 02:21:59;;;;;;;;;;;;;;;15.01;69.71;101834.06;20694877;28;19929;-54
2023/05/09 02:32:22;;;;;;;;;;;;;;;14.93;69.08;101830.84;20702861;28;19940;-56
2023/05/09 02:42:44;;;;;;;;;;;;;;;14.86;69.30;101839.75;20705241;28;19936;-56
2023/05/09 02:53:05;;;;;;;;;;;;;;;14.72;68.45;101837.56;20687736;28;19925;-55
2023/05/09 03:03:26;;;;;;;;;;;;;;;14.65;68.29;101825.63;20690383;28;19980;-56
2023/05/09 03:13:48;;;;;;;;;;;;;;;14.51;69.28;101821.75;20705055;28;20327;-56
2023/05/09 03:24:09;;;;;;;;;;;;;;;14.45;69.56;101796.72;20699909;28;19937;-56
2023/05/09 03:34:31;;;;;;;;;;;;;;;14.32;69.46;101800.59;20699450;28;19929;-56
2023/05/09 03:44:53;;;;;;;;;;;;;;;14.29;69.40;101785.06;20686359;28;19930;-54
2023/05/09 03:55:15;;;;;;;;;;;;;;;14.28;69.32;101779.91;20707425;28;19926;-56
2023/05/09 04:05:37;;;;;;;;;;;;;;;14.28;69.28;101787.72;20695284;28;19929;-55
2023/05/09 04:15:58;;;;;;;;;;;;;;;14.31;68.63;101778.06;20703088;28;19930;-55
2023/05/09 04:26:21;;;;;;;;;;;;;;;14.43;67.41;101776.88;20711913;28;21140;-54
2023/05/09 04:36:43;;;;;;;;;;;;;;;14.34;66.91;101775.38;20702921;28;19972;-55
2023/05/09 04:47:04;;;;;;;;;;;;;;;14.37;67.29;101767.47;20713793;28;19930;-56
2023/05/09 04:57:25;;;;;;;;;;;;;;;14.43;67.41;101745.59;20709666;28;20440;-55
2023/05/09 05:07:47;;;;;;;;;;;;;;;14.52;67.96;101743.53;20712986;28;19930;-54
2023/05/09 05:18:08;;;;;;;;;;;;;;;14.66;68.34;101746.59;20700320;28;19925;-54
2023/05/09 05:28:30;;;;;;;;;;;;;;;14.75;69.16;101733.25;20682366;28;19926;-56
2023/05/09 05:38:51;;;;;;;;;;;;;;;14.93;66.93;101726.56;20705275;28;19941;-55
2023/05/09 05:49:12;;;;;;;;;;;;;;;15.14;66.60;101711.03;20701744;28;19965;-54
2023/05/09 05:59:34;;;;;;;;;;;;;;;15.48;66.65;101700.31;20692278;28;19926;-54
2023/05/09 06:09:56;;;;;;;;;;;;;;;15.88;67.20;101684.03;20692041;28;20024;-56
2023/05/09 06:20:17;;;;;;;;;;;;;;;16.20;65.50;101677.56;20698504;28;19937;-57
2023/05/09 06:30:39;;;;;;;;;;;;;;;16.49;65.21;101662.47;20693133;28;20008;-57
2023/05/09 06:41:00;;;;;;;;;;;;;;;16.65;63.87;101647.84;20689907;28;20344;-54
2023/05/09 06:51:21;;;;;;;;;;;;;;;16.68;65.87;101633.81;20698003;28;20299;-55
2023/05/09 07:01:43;;;;;;;;;;;;;;;16.65;64.82;101621.69;20703713;28;19926;-54
2023/05/09 07:12:04;;;;;;;;;;;;;;;16.94;65.85;101615.22;20697719;28;20570;-56
2023/05/09 07:22:26;;;;;;;;;;;;;;;17.31;66.24;101590.88;20683943;28;19960;-56
2023/05/09 07:32:51;;;;;;;;;;;;;;;17.68;65.93;101572.59;20688463;28;20005;-56
2023/05/09 07:43:13;;;;;;;;;;;;;;;18.00;65.46;101556.19;20706144;28;19980;-56
2023/05/09 07:53:35;;;;;;;;;;;;;;;18.26;66.95;101537.38;20709835;28;19933;-57
2023/05/09 08:03:56;;;;;;;;;;;;;;;18.51;66.07;101526.56;20697788;28;19949;-55
2023/05/09 08:14:18;;;;;;;;;;;;;;;18.73;66.57;101506.16;20710951;28;19930;-55
2023/05/09 08:24:39;;;;;;;;;;;;;;;19.08;65.96;101503.31;20701970;28;19929;-55
2023/05/09 08:35:00;;;;;;;;;;;;;;;19.39;66.67;101489.41;20700665;28;20349;-55
2023/05/09 08:45:26;;;;;;;;;;;;;;;19.73;66.15;101469.94;20701833;28;20015;-55
2023/05/09 08:55:51;;;;;;;;;;;;;;;19.92;66.06;101460.06;20713100;28;20349;-55
2023/05/09 09:06:13;;;;;;;;;;;;;;;20.13;65.61;101429.03;20694387;28;19956;-55
2023/05/09 09:16:35;;;;;;;;;;;;;;;20.28;66.21;101428.16;20718580;28;19925;-55
2023/05/09 09:27:03;;;;;;;;;;;;;;;20.49;65.60;101425.03;20699673;28;19930;-56
2023/05/09 09:37:24;;;;;;;;;;;;;;;20.70;64.40;101412.34;20700772;28;20672;-57
2023/05/09 09:47:47;;;;;;;;;;;;;;;20.95;64.55;101392.28;20694736;28;20007;-55
2023/05/09 09:58:16;;;;;;;;;;;;;;;21.24;63.58;101387.81;20703369;28;20000;-57
2023/05/09 10:08:38;;;;;;;;;;;;;;;21.39;63.85;101372.81;20697095;28;19932;-57
2023/05/09 10:18:59;;;;;;;;;;;;;;;21.52;64.39;101347.31;20709961;28;19925;-55
2023/05/09 10:29:22;;;;;;;;;;;;;;;21.51;64.85;101343.00;20688246;28;20382;-56
2023/05/09 10:39:45;;;;;;;;;;;;;;;21.70;64.49;101314.47;20695869;28;19925;-56
2023/05/09 10:50:07;;;;;;;;;;;;;;;21.82;63.87;101303.13;20693845;28;20502;-55
2023/05/09 11:00:29;;;;;;;;;;;;;;;22.13;63.34;101283.38;20701078;28;19925;-56
2023/05/09 11:10:51;;;;;;;;;;;;;;;22.10;63.91;101279.16;20678933;28;19991;-57
2023/05/09 11:21:13;;;;;;;;;;;;;;;22.01;64.60;101258.72;20720177;28;19929;-55
2023/05/09 11:31:54;;;;;;;;;;;;;;;21.73;64.52;101256.28;20696317;28;19972;-55
2023/05/09 11:42:16;;;;;;;;;;;;;;;21.66;65.08;101247.97;20701864;28;19926;-55
2023/05/09 11:52:37;;;;;;;;;;;;;;;21.52;64.18;101237.53;20704696;28;19929;-57
2023/05/09 12:02:59;;;;;;;;;;;;;;;21.47;65.08;101237.00;20708416;28;20067;-54
2023/05/09 12:13:21;;;;;;;;;;;;;;;21.46;65.07;101223.97;20702154;28;19933;-54
2023/05/09 12:23:43;;;;;;;;;;;;;;;21.41;65.31;101207.59;20709146;28;19976;-54
2023/05/09 12:34:05;;;;;;;;;;;;;;;21.27;65.15;101191.91;20703723;28;19926;-57
2023/05/09 12:44:28;;;;;;;;;;;;;;;21.27;65.57;101181.38;20698324;28;19926;-55
2023/05/09 12:54:51;;;;;;;;;;;;;;;21.51;65.04;101174.44;20697724;28;19961;-56
2023/05/09 13:05:16;;;;;;;;;;;;;;;21.65;65.25;101171.66;20701807;28;19984;-55
2023/05/09 13:15:38;;;;;;;;;;;;;;;21.59;65.27;101157.13;20697569;28;19973;-56
2023/05/09 13:25:59;;;;;;;;;;;;;;;21.62;65.00;101129.75;20700212;28;19925;-57
2023/05/09 13:36:21;;;;;;;;;;;;;;;21.81;64.34;101124.88;20696774;28;19937;-57
2023/05/09 13:46:43;;;;;;;;;;;;;;;21.78;65.12;101109.25;20707553;28;20000;-55
2023/05/09 13:57:04;;;;;;;;;;;;;;;21.65;65.22;101104.00;20697797;28;19979;-56
2023/05/09 14:07:26;;;;;;;;;;;;;;;21.55;64.44;101081.06;20707373;28;19984;-57
2023/05/09 14:17:47;;;;;;;;;;;;;;;21.62;64.47;101074.41;20690062;28;20023;-56
2023/05/09 14:28:09;;;;;;;;;;;;;;;21.76;64.75;101059.28;20688842;28;20443;-56
2023/05/09 14:38:32;;;;;;;;;;;;;;;21.80;64.51;101044.97;20686798;28;20724;-55
2023/05/09 14:48:56;;;;;;;;;;;;;;;21.68;65.23;101056.34;20687055;28;20676;-55
2023/05/09 14:59:17;;;;;;;;;;;;;;;20.78;69.13;101053.16;20686771;28;19937;-56
2023/05/09 15:09:39;;;;;;;;;;;;;;;20.06;71.59;101031.75;20700819;28;19936;-56
2023/05/09 15:20:01;;;;;;;;;;;;;;;19.63;74.48;101027.63;20706744;28;19926;-54
2023/05/09 15:30:23;;;;;;;;;;;;;;;19.48;75.14;101011.06;20689667;28;20442;-55
2023/05/09 15:40:44;;;;;;;;;;;;;;;19.45;77.12;101003.34;20708270;28;19926;-56
2023/05/09 15:51:06;;;;;;;;;;;;;;;19.53;76.01;100992.38;20699133;28;19930;-55
2023/05/09 16:01:27;;;;;;;;;;;;;;;19.58;76.58;100985.03;20701832;28;19987;-56
2023/05/09 16:11:49;;;;;;;;;;;;;;;19.58;76.10;100977.16;20714583;28;19962;-56
2023/05/09 16:22:11;;;;;;;;;;;;;;;19.38;75.54;100995.97;20704924;28;20479;-54
2023/05/09 16:32:33;;;;;;;;;;;;;;;19.12;77.06;101009.88;20707527;28;19933;-54
2023/05/09 16:42:54;;;;;;;;;;;;;;;18.89;79.92;100993.78;20707064;28;20308;-55
2023/05/09 16:53:17;;;;;;;;;;;;;;;18.74;81.12;100986.00;20712600;28;19926;-57
2023/05/09 17:03:39;;;;;;;;;;;;;;;18.56;81.26;100959.13;20698947;28;19929;-54
2023/05/09 17:14:01;;;;;;;;;;;;;;;18.45;83.93;100924.03;20688651;28;19929;-55
2023/05/09 17:24:22;;;;;;;;;;;;;;;18.36;82.86;100890.47;20695856;28;20436;-54
2023/05/09 17:34:43;;;;;;;;;;;;;;;18.37;81.85;100906.09;20704481;28;19949;-57
2023/05/09 17:45:05;;;;;;;;;;;;;;;18.01;85.47;100958.09;20710564;28;19932;-56
2023/05/09 17:55:29;;;;;;;;;;;;;;;17.77;85.52;100951.66;20704476;28;20606;-56
2023/05/09 18:05:50;;;;;;;;;;;;;;;17.70;87.55;100961.63;20709438;28;20321;-56
2023/05/09 18:16:11;;;;;;;;;;;;;;;17.52;88.08;100947.00;20695902;28;20343;-54
2023/05/09 18:26:33;;;;;;;;;;;;;;;17.37;88.50;100950.44;20693956;28;19979;-55
2023/05/09 18:36:56;;;;;;;;;;;;;;;17.35;87.57;100954.03;20705364;28;19925;-57
2023/05/09 18:47:17;;;;;;;;;;;;;;;17.30;88.75;100966.53;20707912;28;19995;-56
2023/05/09 18:57:39;;;;;;;;;;;;;;;17.19;89.19;100968.91;20696828;28;19930;-55
2023/05/09 19:08:02;;;;;;;;;;;;;;;17.16;89.56;100972.53;20701013;28;20297;-55
2023/05/09 19:18:23;;;;;;;;;;;;;;;17.15;89.97;100963.00;20689926;28;20442;-55
2023/05/09 19:28:45;;;;;;;;;;;;;;;17.21;89.44;100967.91;20691230;28;19981;-55
2023/05/09 19:39:07;;;;;;;;;;;;;;;17.18;90.69;100969.84;20712629;28;20381;-56
2023/05/09 19:49:29;;;;;;;;;;;;;;;17.15;90.18;100972.63;20702686;28;19930;-55
2023/05/09 19:59:52;;;;;;;;;;;;;;;17.07;91.62;100947.72;20708721;28;20375;-56
2023/05/09 20:10:14;;;;;;;;;;;;;;;17.03;91.61;100946.22;20711645;28;19987;-56
2023/05/09 20:20:36;;;;;;;;;;;;;;;16.93;91.38;100931.97;20720071;28;20432;-56
2023/05/09 20:30:57;;;;;;;;;;;;;;;16.94;91.12;100927.56;20703370;28;20070;-54
2023/05/09 20:41:19;;;;;;;;;;;;;;;16.91;92.23;100925.97;20703330;28;19929;-54
2023/05/09 20:51:40;;;;;;;;;;;;;;;16.99;91.76;100925.56;20701679;28;19929;-54
2023/05/09 21:02:02;;;;;;;;;;;;;;;17.04;90.87;100924.38;20695810;28;20121;-55
2023/05/09 21:12:23;;;;;;;;;;;;;;;17.01;89.44;100908.84;20698010;28;19934;-53
2023/05/09 21:22:45;;;;;;;;;;;;;;;16.88;91.08;100918.28;20711683;28;19972;-54
2023/05/09 21:33:06;;;;;;;;;;;;;;;16.86;91.21;100912.31;20717425;28;19949;-53
2023/05/09 21:43:28;;;;;;;;;;;;;;;16.85;91.83;100884.47;20702028;28;19999;-55
2023/05/09 21:53:49;;;;;;;;;;;;;;;16.76;91.94;100884.97;20712845;28;19932;-54
2023/05/09 22:04:10;;;;;;;;;;;;;;;16.73;91.79;100866.84;20693958;28;19926;-56
2023/05/09 22:14:32;;;;;;;;;;;;;;;16.66;92.92;100868.13;20703637;28;19929;-57
2023/05/09 22:25:05;;;;;;;;;;;;;;;16.66;92.50;100870.75;20691852;28;19936;-55
2023/05/09 22:35:27;;;;;;;;;;;;;;;16.65;92.90;100874.25;20708026;28;19980;-55
2023/05/09 22:45:48;;;;;;;;;;;;;;;16.66;98.30;100865.50;20702555;28;19983;-55
2023/05/09 22:56:10;;;;;;;;;;;;;;;16.67;97.43;100864.56;20705766;28;19925;-54
2023/05/09 23:06:31;;;;;;;;;;;;;;;16.62;92.78;100861.38;20702203;28;20370;-56
2023/05/09 23:16:53;;;;;;;;;;;;;;;16.57;92.85;100847.69;20700156;28;19965;-55
2023/05/09 23:27:14;;;;;;;;;;;;;;;16.57;97.26;100829.41;20693288;28;20409;-56
2023/05/09 23:37:35;;;;;;;;;;;;;;;16.52;92.72;100820.97;20670509;28;20439;-56
2023/05/09 23:47:57;;;;;;;;;;;;;;;16.46;92.41;100810.84;20704368;28;19925;-56
2023/05/09 23:58:18;;;;;;;;;;;;;;;16.42;92.92;100811.94;20699587;28;19930;-55
